createdAt,value
2023-04-07T00:00:40.932Z,13.32
2023-04-07T00:03:13.077Z,13.85
2023-04-07T00:05:45.146Z,13.35
2023-04-07T00:08:17.088Z,21.10
2023-04-07T00:10:48.902Z,14.77
2023-04-07T00:13:20.723Z,19.33
2023-04-07T00:15:52.776Z,16.67
2023-04-07T00:18:24.614Z,14.30
2023-04-07T00:20:57.020Z,19.88
2023-04-07T00:23:28.899Z,15.38
2023-04-07T00:26:01.037Z,13.32
2023-04-07T00:28:32.962Z,15.65
2023-04-07T00:31:04.853Z,13.90
2023-04-07T00:33:36.763Z,16.35
2023-04-07T00:36:08.912Z,14.23
2023-04-07T00:38:41.128Z,16.25
2023-04-07T00:41:13.391Z,13.07
2023-04-07T00:43:46.091Z,15.40
2023-04-07T00:46:22.175Z,18.30
2023-04-07T00:48:54.082Z,17.83
2023-04-07T00:51:27.076Z,15.57
2023-04-07T00:54:00.832Z,21.25
2023-04-07T00:56:32.977Z,14.95
2023-04-07T00:59:05.634Z,14.70
2023-04-07T01:01:58.856Z,13.98
2023-04-07T01:04:56.176Z,15.05
2023-04-07T01:07:36.059Z,19.92
2023-04-07T01:10:19.412Z,15.05
2023-04-07T01:13:17.465Z,16.00
2023-04-07T01:15:53.010Z,16.33
2023-04-07T01:18:32.906Z,17.88
2023-04-07T01:21:16.497Z,14.75
2023-04-07T01:24:30.139Z,17.23
2023-04-07T01:27:36.422Z,20.02
2023-04-07T01:30:12.488Z,21.42
2023-04-07T01:32:50.416Z,13.93
2023-04-07T01:35:23.412Z,12.68
2023-04-07T01:37:56.185Z,17.85
2023-04-07T01:40:30.123Z,15.07
2023-04-07T01:43:02.443Z,16.70
2023-04-07T01:45:36.488Z,15.10
2023-04-07T01:48:09.248Z,16.25
2023-04-07T01:50:41.563Z,12.23
2023-04-07T01:53:15.449Z,14.63
2023-04-07T01:55:47.542Z,15.02
2023-04-07T01:58:20.559Z,16.83
2023-04-07T02:00:53.363Z,17.58
2023-04-07T02:03:35.243Z,14.07
2023-04-07T02:06:08.637Z,18.27
2023-04-07T02:08:46.430Z,13.75
2023-04-07T02:11:22.143Z,14.27
2023-04-07T02:13:57.668Z,18.13
2023-04-07T02:16:32.036Z,17.05
2023-04-07T02:19:05.980Z,15.48
2023-04-07T02:21:40.771Z,15.75
2023-04-07T02:24:12.746Z,16.30
2023-04-07T02:26:44.676Z,12.02
2023-04-07T02:29:16.543Z,15.25
2023-04-07T02:31:48.668Z,20.80
2023-04-07T02:34:20.626Z,18.52
2023-04-07T02:36:52.523Z,15.43
2023-04-07T02:39:24.435Z,13.55
2023-04-07T02:41:56.285Z,14.70
2023-04-07T02:44:28.129Z,13.95
2023-04-07T02:46:59.985Z,15.55
2023-04-07T02:49:31.833Z,16.95
2023-04-07T02:52:04.713Z,19.67
2023-04-07T02:54:36.796Z,16.60
2023-04-07T02:57:08.721Z,14.55
2023-04-07T02:59:41.335Z,18.40
2023-04-07T03:02:15.585Z,18.08
2023-04-07T03:04:47.570Z,14.48
2023-04-07T03:07:21.007Z,16.58
2023-04-07T03:09:55.687Z,15.65
2023-04-07T03:12:27.596Z,14.35
2023-04-07T03:14:59.746Z,20.60
2023-04-07T03:17:31.943Z,14.23
2023-04-07T03:20:04.036Z,20.55
2023-04-07T03:22:40.117Z,14.20
2023-04-07T03:25:18.358Z,17.58
2023-04-07T03:27:50.975Z,15.88
2023-04-07T03:30:23.158Z,17.00
2023-04-07T03:32:55.393Z,16.45
2023-04-07T03:35:27.545Z,19.65
2023-04-07T03:37:59.379Z,15.43
2023-04-07T03:40:33.662Z,14.20
2023-04-07T03:43:06.027Z,16.10
2023-04-07T03:45:38.396Z,15.90
2023-04-07T03:48:12.324Z,13.52
2023-04-07T03:50:56.227Z,16.10
2023-04-07T03:53:28.124Z,17.65
2023-04-07T03:56:01.091Z,14.50
2023-04-07T03:58:49.456Z,13.27
2023-04-07T04:01:29.579Z,14.75
2023-04-07T04:04:03.894Z,15.73
2023-04-07T04:06:36.484Z,15.13
2023-04-07T04:09:17.851Z,15.47
2023-04-07T04:11:53.124Z,14.63
2023-04-07T04:14:24.956Z,12.63
2023-04-07T04:17:02.023Z,14.60
2023-04-07T04:19:42.743Z,17.90
2023-04-07T04:22:22.364Z,14.80
2023-04-07T04:25:00.305Z,17.67
2023-04-07T04:27:33.210Z,16.80
2023-04-07T04:30:11.138Z,17.98
2023-04-07T04:32:53.602Z,20.27
2023-04-07T04:35:32.369Z,13.60
2023-04-07T04:38:24.783Z,19.10
2023-04-07T04:41:06.980Z,19.38
2023-04-07T04:43:39.385Z,17.90
2023-04-07T04:46:12.761Z,16.65
2023-04-07T04:48:49.225Z,16.38
2023-04-07T04:51:22.973Z,14.57
2023-04-07T04:54:00.895Z,18.02
2023-04-07T04:56:33.942Z,18.48
2023-04-07T04:59:06.355Z,15.30
2023-04-07T05:01:46.851Z,19.75
2023-04-07T05:04:21.771Z,16.70
2023-04-07T05:07:02.284Z,17.80
2023-04-07T05:09:36.511Z,13.63
2023-04-07T05:12:08.365Z,16.13
2023-04-07T05:14:45.990Z,13.52
2023-04-07T05:17:18.315Z,13.50
2023-04-07T05:19:50.395Z,15.57
2023-04-07T05:22:33.651Z,19.45
2023-04-07T05:25:06.374Z,19.00
2023-04-07T05:27:38.936Z,17.88
2023-04-07T05:30:16.477Z,21.65
2023-04-07T05:32:49.202Z,20.15
2023-04-07T05:35:36.188Z,16.05
2023-04-07T05:38:08.132Z,14.90
2023-04-07T05:40:41.051Z,16.08
2023-04-07T05:43:15.680Z,15.05
2023-04-07T05:45:48.059Z,18.17
2023-04-07T05:48:20.790Z,23.48
2023-04-07T05:50:52.668Z,19.13
2023-04-07T05:53:25.392Z,21.35
2023-04-07T05:55:57.219Z,21.55
2023-04-07T05:58:47.903Z,21.00
2023-04-07T06:01:21.199Z,17.88
2023-04-07T06:03:53.733Z,18.15
2023-04-07T06:06:31.377Z,19.55
2023-04-07T06:09:03.379Z,19.92
2023-04-07T06:11:35.403Z,16.05
2023-04-07T06:14:07.280Z,14.25
2023-04-07T06:16:40.042Z,15.70
2023-04-07T06:19:12.089Z,18.88
2023-04-07T06:21:44.072Z,33.20
2023-04-07T06:24:16.444Z,16.38
2023-04-07T06:26:49.128Z,28.95
2023-04-07T06:29:21.143Z,13.95
2023-04-07T06:31:53.455Z,16.13
2023-04-07T06:34:25.337Z,16.67
2023-04-07T06:36:58.365Z,14.80
2023-04-07T06:39:31.324Z,12.88
2023-04-07T06:42:03.198Z,14.68
2023-04-07T06:44:41.245Z,15.35
2023-04-07T06:47:13.103Z,17.73
2023-04-07T06:49:44.991Z,15.18
2023-04-07T06:52:16.847Z,13.57
2023-04-07T06:54:48.760Z,13.43
2023-04-07T06:57:20.678Z,13.88
2023-04-07T06:59:52.519Z,15.60
2023-04-07T07:02:24.627Z,10.55
2023-04-07T07:04:56.762Z,13.07
2023-04-07T07:07:28.615Z,15.70
2023-04-07T07:10:00.550Z,13.45
2023-04-07T07:12:33.397Z,13.15
2023-04-07T07:15:05.973Z,14.98
2023-04-07T07:17:37.901Z,14.98
2023-04-07T07:20:10.482Z,16.88
2023-04-07T07:22:42.314Z,16.27
2023-04-07T07:25:14.420Z,19.10
2023-04-07T07:27:46.432Z,14.13
2023-04-07T07:30:18.425Z,16.25
2023-04-07T07:32:51.371Z,17.73
2023-04-07T07:35:25.241Z,20.52
2023-04-07T07:37:57.057Z,17.83
2023-04-07T07:40:28.885Z,14.32
2023-04-07T07:43:01.029Z,13.65
2023-04-07T07:45:33.038Z,12.93
2023-04-07T07:48:04.948Z,19.70
2023-04-07T07:50:36.795Z,15.85
2023-04-07T07:53:08.675Z,16.65
2023-04-07T07:55:40.792Z,17.15
2023-04-07T07:58:12.902Z,17.15
2023-04-07T08:00:45.794Z,18.33
2023-04-07T08:03:19.968Z,17.10
2023-04-07T08:05:52.076Z,16.91
2023-04-07T08:08:24.049Z,19.83
2023-04-07T08:10:55.934Z,16.15
2023-04-07T08:13:27.791Z,25.48
2023-04-07T08:15:59.725Z,22.73
2023-04-07T08:18:31.677Z,23.05
2023-04-07T08:21:06.811Z,14.98
2023-04-07T08:23:38.713Z,19.13
2023-04-07T08:26:11.109Z,16.58
2023-04-07T08:28:43.049Z,14.70
2023-04-07T08:31:15.004Z,17.73
2023-04-07T08:33:47.476Z,14.80
2023-04-07T08:36:23.605Z,15.55
2023-04-07T08:38:55.956Z,16.33
2023-04-07T08:41:36.704Z,17.10
2023-04-07T08:44:11.589Z,14.25
2023-04-07T08:46:44.836Z,15.73
2023-04-07T08:49:18.559Z,16.50
2023-04-07T08:51:51.849Z,21.10
2023-04-07T08:54:24.600Z,26.70
2023-04-07T08:56:56.616Z,16.60
2023-04-07T08:59:29.803Z,18.23
2023-04-07T09:02:02.773Z,18.55
2023-04-07T09:04:34.728Z,19.58
2023-04-07T09:07:06.642Z,22.83
2023-04-07T09:09:38.592Z,19.48
2023-04-07T09:12:11.438Z,22.65
2023-04-07T09:14:43.466Z,20.60
2023-04-07T09:17:15.400Z,22.35
2023-04-07T09:19:48.452Z,21.45
2023-04-07T09:22:36.805Z,19.20
2023-04-07T09:25:16.291Z,18.90
2023-04-07T09:28:01.508Z,18.58
2023-04-07T09:30:34.452Z,17.58
2023-04-07T09:33:06.362Z,24.58
2023-04-07T09:35:53.403Z,19.92
2023-04-07T09:38:37.038Z,21.35
2023-04-07T09:41:11.587Z,23.50
2023-04-07T09:43:45.558Z,16.83
2023-04-07T09:46:21.269Z,21.80
2023-04-07T09:49:05.250Z,21.80
2023-04-07T09:51:37.192Z,20.65
2023-04-07T09:54:09.365Z,24.38
2023-04-07T09:56:41.367Z,20.52
2023-04-07T09:59:15.488Z,20.00
2023-04-07T10:01:47.539Z,23.70
2023-04-07T10:04:19.728Z,19.77
2023-04-07T10:06:56.740Z,24.02
2023-04-07T10:09:29.946Z,23.58
2023-04-07T10:12:02.025Z,20.25
2023-04-07T10:14:36.291Z,20.23
2023-04-07T10:17:08.971Z,21.40
2023-04-07T10:19:41.102Z,19.10
2023-04-07T10:22:14.333Z,19.52
2023-04-07T10:25:11.966Z,21.58
2023-04-07T10:27:51.762Z,22.15
2023-04-07T10:30:29.857Z,19.80
2023-04-07T10:33:02.480Z,21.95
2023-04-07T10:36:08.583Z,23.27
2023-04-07T10:38:41.576Z,20.67
2023-04-07T10:41:37.653Z,19.02
2023-04-07T10:44:31.200Z,21.60
2023-04-07T10:47:05.651Z,20.27
2023-04-07T10:49:38.036Z,23.40
2023-04-07T10:52:12.587Z,20.98
2023-04-07T10:54:44.455Z,23.70
2023-04-07T10:57:16.442Z,23.02
2023-04-07T11:00:10.632Z,23.80
2023-04-07T11:02:45.384Z,23.40
2023-04-07T11:05:24.972Z,23.45
2023-04-07T11:07:58.391Z,24.48
2023-04-07T11:10:30.380Z,25.80
2023-04-07T11:13:08.746Z,27.58
2023-04-07T11:15:41.155Z,23.90
2023-04-07T11:18:16.953Z,24.05
2023-04-07T11:20:58.506Z,22.65
2023-04-07T11:23:37.495Z,21.52
2023-04-07T11:26:11.598Z,24.45
2023-04-07T11:28:52.971Z,26.25
2023-04-07T11:34:05.729Z,24.40
2023-04-07T11:36:41.990Z,25.08
2023-04-07T11:39:21.596Z,24.83
2023-04-07T11:41:53.682Z,22.67
2023-04-07T11:44:26.796Z,22.03
2023-04-07T11:47:03.773Z,20.67
2023-04-07T11:49:44.093Z,20.73
2023-04-07T11:52:16.029Z,22.23
2023-04-07T11:54:49.979Z,22.15
2023-04-07T11:57:29.324Z,21.15
2023-04-07T12:00:08.836Z,26.80
2023-04-07T12:02:41.179Z,20.88
2023-04-07T12:05:13.417Z,22.10
2023-04-07T12:07:54.616Z,22.45
2023-04-07T12:10:27.019Z,21.83
2023-04-07T12:12:59.633Z,22.40
2023-04-07T12:15:31.676Z,21.92
2023-04-07T12:18:03.924Z,20.90
2023-04-07T12:20:37.519Z,23.60
2023-04-07T12:23:09.735Z,22.15
2023-04-07T12:25:43.115Z,22.15
2023-04-07T12:28:15.010Z,25.35
2023-04-07T12:30:47.013Z,21.95
2023-04-07T12:33:19.400Z,23.00
2023-04-07T12:35:51.976Z,23.45
2023-04-07T12:38:24.472Z,22.75
2023-04-07T12:41:03.190Z,25.15
2023-04-07T12:43:35.599Z,23.77
2023-04-07T12:46:07.602Z,24.25
2023-04-07T12:48:39.428Z,27.70
2023-04-07T12:51:11.483Z,24.35
2023-04-07T12:53:43.408Z,25.25
2023-04-07T12:56:15.784Z,23.20
2023-04-07T12:58:48.027Z,23.42
2023-04-07T13:01:20.380Z,21.13
2023-04-07T13:03:52.929Z,26.50
2023-04-07T13:06:25.620Z,22.23
2023-04-07T13:08:57.595Z,24.08
2023-04-07T13:11:29.501Z,20.58
2023-04-07T13:14:01.876Z,25.50
2023-04-07T13:16:34.291Z,24.88
2023-04-07T13:19:06.334Z,23.40
2023-04-07T13:21:45.271Z,22.23
2023-04-07T13:24:18.430Z,22.98
2023-04-07T13:26:50.362Z,27.15
2023-04-07T13:29:22.224Z,25.48
2023-04-07T13:31:54.082Z,23.23
2023-04-07T13:34:25.940Z,24.58
2023-04-07T13:36:57.784Z,21.98
2023-04-07T13:39:30.732Z,25.05
2023-04-07T13:42:02.718Z,23.23
2023-04-07T13:44:35.076Z,23.30
2023-04-07T13:47:07.464Z,24.60
2023-04-07T13:49:39.526Z,24.67
2023-04-07T13:52:11.608Z,26.00
2023-04-07T13:54:44.160Z,28.45
2023-04-07T13:57:20.712Z,25.23
2023-04-07T13:59:53.178Z,24.52
2023-04-07T14:02:28.138Z,27.50
2023-04-07T14:05:00.582Z,23.75
2023-04-07T14:07:32.408Z,25.50
2023-04-07T14:10:04.526Z,28.42
2023-04-07T14:12:37.076Z,23.38
2023-04-07T14:15:09.672Z,24.13
2023-04-07T14:17:41.539Z,25.83
2023-04-07T14:20:13.465Z,23.45
2023-04-07T14:22:45.595Z,24.40
2023-04-07T14:25:17.552Z,26.52
2023-04-07T14:27:49.465Z,26.85
2023-04-07T14:30:21.488Z,26.98
2023-04-07T14:32:53.686Z,25.08
2023-04-07T14:35:25.667Z,26.48
2023-04-07T14:37:57.518Z,25.08
2023-04-07T14:40:29.337Z,24.00
2023-04-07T14:43:07.288Z,25.58
2023-04-07T14:45:39.838Z,25.70
2023-04-07T14:48:11.907Z,25.30
2023-04-07T14:50:44.008Z,25.27
2023-04-07T14:53:16.406Z,29.80
2023-04-07T14:55:48.297Z,24.80
2023-04-07T14:58:21.180Z,28.08
2023-04-07T15:00:53.064Z,26.17
2023-04-07T15:03:25.154Z,25.75
2023-04-07T15:05:58.086Z,26.50
2023-04-07T15:08:29.903Z,23.90
2023-04-07T15:11:05.590Z,26.38
2023-04-07T15:13:37.545Z,29.40
2023-04-07T15:16:14.414Z,27.70
2023-04-07T15:18:47.289Z,28.48
2023-04-07T15:21:19.335Z,27.52
2023-04-07T15:23:52.466Z,29.80
2023-04-07T15:26:24.331Z,26.85
2023-04-07T15:28:56.209Z,25.48
2023-04-07T15:31:29.961Z,26.35
2023-04-07T15:34:01.968Z,28.48
2023-04-07T15:36:33.783Z,28.23
2023-04-07T15:39:06.757Z,26.48
2023-04-07T15:41:39.144Z,25.10
2023-04-07T15:44:18.811Z,26.30
2023-04-07T15:46:50.896Z,28.02
2023-04-07T15:49:24.995Z,26.08
2023-04-07T15:51:58.735Z,30.50
2023-04-07T15:54:31.240Z,27.50
2023-04-07T15:57:03.379Z,29.83
2023-04-07T15:59:36.222Z,26.17
2023-04-07T16:02:08.448Z,28.08
2023-04-07T16:04:40.911Z,25.08
2023-04-07T16:07:12.792Z,29.33
2023-04-07T16:09:44.669Z,27.35
2023-04-07T16:12:17.257Z,30.08
2023-04-07T16:14:50.338Z,26.92
2023-04-07T16:17:22.374Z,27.80
2023-04-07T16:19:54.490Z,28.60
2023-04-07T16:22:27.152Z,28.67
2023-04-07T16:24:58.989Z,27.27
2023-04-07T16:27:30.836Z,26.63
2023-04-07T16:30:05.199Z,30.35
2023-04-07T16:32:37.206Z,32.55
2023-04-07T16:35:10.714Z,26.08
2023-04-07T16:37:43.246Z,65.20
2023-04-07T16:40:15.128Z,33.58
2023-04-07T16:42:47.653Z,30.67
2023-04-07T16:45:19.561Z,30.45
2023-04-07T16:47:51.579Z,29.10
2023-04-07T16:50:28.266Z,27.75
2023-04-07T16:53:04.467Z,28.83
2023-04-07T16:55:37.404Z,27.83
2023-04-07T16:58:09.738Z,30.50
2023-04-07T17:00:41.636Z,100.63
2023-04-07T17:03:16.807Z,79.97
2023-04-07T17:05:49.445Z,47.30
2023-04-07T17:08:21.578Z,49.20
2023-04-07T17:10:56.404Z,37.40
2023-04-07T17:13:28.459Z,31.80
2023-04-07T17:16:02.373Z,37.40
2023-04-07T17:18:34.465Z,40.42
2023-04-07T17:21:06.395Z,30.27
2023-04-07T17:23:38.426Z,30.42
2023-04-07T17:26:10.366Z,66.95
2023-04-07T17:28:42.456Z,41.58
2023-04-07T17:31:14.625Z,46.45
2023-04-07T17:33:47.880Z,29.75
2023-04-07T17:36:20.214Z,28.50
2023-04-07T17:38:52.612Z,28.88
2023-04-07T17:41:28.183Z,31.50
2023-04-07T17:44:01.005Z,28.45
2023-04-07T17:46:33.059Z,30.52
2023-04-07T17:49:05.373Z,26.58
2023-04-07T17:51:38.971Z,28.85
2023-04-07T17:54:10.807Z,27.27
2023-04-07T17:56:47.054Z,30.05
2023-04-07T17:59:19.092Z,32.67
2023-04-07T18:01:52.013Z,31.35
2023-04-07T18:04:26.184Z,36.95
2023-04-07T18:06:59.316Z,35.95
2023-04-07T18:09:31.522Z,34.50
2023-04-07T18:12:04.063Z,34.65
2023-04-07T18:14:35.892Z,33.22
2023-04-07T18:17:07.832Z,33.88
2023-04-07T18:19:39.694Z,37.10
2023-04-07T18:22:11.768Z,34.40
2023-04-07T18:24:47.595Z,34.00
2023-04-07T18:27:24.327Z,32.55
2023-04-07T18:29:56.906Z,33.10
2023-04-07T18:32:28.799Z,36.70
2023-04-07T18:35:07.953Z,37.20
2023-04-07T18:37:40.645Z,33.33
2023-04-07T18:40:13.594Z,33.08
2023-04-07T18:42:45.907Z,36.38
2023-04-07T18:45:18.306Z,31.70
2023-04-07T18:47:51.376Z,36.45
2023-04-07T18:50:23.333Z,34.13
2023-04-07T18:52:55.319Z,31.15
2023-04-07T18:55:27.475Z,33.28
2023-04-07T18:58:01.935Z,35.47
2023-04-07T19:00:35.416Z,36.35
2023-04-07T19:03:07.997Z,39.03
2023-04-07T19:05:41.821Z,31.70
2023-04-07T19:08:15.030Z,38.30
2023-04-07T19:10:47.431Z,33.20
2023-04-07T19:13:26.860Z,32.97
2023-04-07T19:16:01.969Z,36.33
2023-04-07T19:18:34.693Z,31.67
2023-04-07T19:21:12.692Z,36.10
2023-04-07T19:23:45.942Z,33.55
2023-04-07T19:26:17.923Z,34.70
2023-04-07T19:28:50.323Z,39.90
2023-04-07T19:31:22.431Z,34.83
2023-04-07T19:33:54.384Z,32.17
2023-04-07T19:36:26.555Z,35.03
2023-04-07T19:38:59.144Z,31.55
2023-04-07T19:41:33.769Z,35.78
2023-04-07T19:44:05.655Z,33.35
2023-04-07T19:46:37.896Z,34.80
2023-04-07T19:49:10.236Z,33.45
2023-04-07T19:51:43.093Z,34.53
2023-04-07T19:54:17.640Z,35.85
2023-04-07T19:56:49.525Z,38.28
2023-04-07T19:59:21.565Z,107.68
2023-04-07T20:01:56.802Z,80.10
2023-04-07T20:04:28.762Z,48.75
2023-04-07T20:07:01.152Z,31.35
2023-04-07T20:09:33.237Z,32.78
2023-04-07T20:12:05.123Z,36.78
2023-04-07T20:14:37.824Z,31.60
2023-04-07T20:17:09.873Z,32.45
2023-04-07T20:19:42.204Z,31.83
2023-04-07T20:22:14.080Z,28.83
2023-04-07T20:24:45.978Z,29.80
2023-04-07T20:27:18.393Z,34.55
2023-04-07T20:29:51.055Z,33.35
2023-04-07T20:32:23.437Z,32.05
2023-04-07T20:34:55.449Z,30.88
2023-04-07T20:37:27.855Z,32.63
2023-04-07T20:39:59.763Z,34.25
2023-04-07T20:42:31.628Z,36.17
2023-04-07T20:45:04.910Z,95.43
2023-04-07T20:47:42.266Z,26.96
2023-04-07T20:50:14.255Z,25.65
2023-04-07T20:52:46.185Z,26.77
2023-04-07T20:55:20.503Z,24.58
2023-04-07T20:57:54.487Z,30.30
2023-04-07T21:00:26.387Z,26.52
2023-04-07T21:02:58.552Z,30.50
2023-04-07T21:05:30.827Z,25.75
2023-04-07T21:08:02.742Z,27.77
2023-04-07T21:10:34.557Z,28.23
2023-04-07T21:13:06.381Z,24.98
2023-04-07T21:15:38.424Z,27.17
2023-04-07T21:18:10.880Z,30.35
2023-04-07T21:20:44.344Z,25.92
2023-04-07T21:23:16.194Z,25.70
2023-04-07T21:25:48.240Z,26.55
2023-04-07T21:28:20.379Z,25.58
2023-04-07T21:30:55.681Z,26.45
2023-04-07T21:33:27.716Z,26.58
2023-04-07T21:36:03.889Z,27.10
2023-04-07T21:38:36.241Z,26.00
2023-04-07T21:41:08.412Z,29.48
2023-04-07T21:43:40.474Z,27.42
2023-04-07T21:46:14.197Z,24.75
2023-04-07T21:48:46.109Z,26.52
2023-04-07T21:51:19.208Z,23.25
2023-04-07T21:53:51.255Z,24.40
2023-04-07T21:56:23.181Z,25.00
2023-04-07T21:58:55.413Z,26.02
2023-04-07T22:01:28.299Z,23.63
2023-04-07T22:04:00.362Z,26.70
2023-04-07T22:06:32.464Z,24.63
2023-04-07T22:09:05.570Z,26.40
2023-04-07T22:11:37.605Z,27.88
2023-04-07T22:14:09.414Z,20.55
2023-04-07T22:16:41.537Z,25.10
2023-04-07T22:19:13.416Z,22.17
2023-04-07T22:21:49.651Z,22.10
2023-04-07T22:24:21.556Z,21.77
2023-04-07T22:26:55.378Z,22.48
2023-04-07T22:29:27.666Z,22.30
2023-04-07T22:31:59.655Z,24.13
2023-04-07T22:34:31.607Z,23.50
2023-04-07T22:37:03.691Z,24.40
2023-04-07T22:39:35.973Z,22.60
2023-04-07T22:42:07.776Z,25.83
2023-04-07T22:44:40.037Z,21.13
2023-04-07T22:47:12.126Z,20.73
2023-04-07T22:49:44.203Z,23.42
2023-04-07T22:52:16.064Z,22.25
2023-04-07T22:54:48.113Z,23.75
2023-04-07T22:57:20.529Z,19.63
2023-04-07T22:59:52.494Z,24.73
2023-04-07T23:02:24.564Z,17.50
2023-04-07T23:04:56.561Z,20.75
2023-04-07T23:07:28.482Z,23.48
2023-04-07T23:10:00.481Z,20.48
2023-04-07T23:12:32.305Z,22.42
2023-04-07T23:15:04.510Z,23.23
2023-04-07T23:17:36.867Z,22.30
2023-04-07T23:20:09.351Z,19.23
2023-04-07T23:22:41.233Z,20.60
2023-04-07T23:25:13.120Z,18.92
2023-04-07T23:27:45.045Z,19.02
2023-04-07T23:30:16.979Z,19.88
2023-04-07T23:32:48.885Z,20.75
2023-04-07T23:35:20.837Z,19.75
2023-04-07T23:37:52.888Z,18.60
2023-04-07T23:40:24.741Z,21.73
2023-04-07T23:42:56.667Z,20.50
2023-04-07T23:45:28.632Z,19.02
2023-04-07T23:48:00.829Z,19.65
2023-04-07T23:50:32.744Z,19.80
2023-04-07T23:53:04.713Z,16.65
2023-04-07T23:55:36.617Z,24.70
2023-04-07T23:58:08.645Z,21.02
